sensor_id;sensor_type;location;lat;lon;timestamp;temperature;humidity
28524;DHT22;15734;50.904;6.922;2023-05-10T00:00:20;13.40;99.90
28524;DHT22;15734;50.904;6.922;2023-05-10T00:02:48;13.40;99.90
28524;DHT22;15734;50.904;6.922;2023-05-10T00:05:13;13.40;99.90
28524;DHT22;15734;50.904;6.922;2023-05-10T00:07:39;13.40;99.90
28524;DHT22;15734;50.904;6.922;2023-05-10T00:10:05;13.40;99.90
28524;DHT22;15734;50.904;6.922;2023-05-10T00:12:30;13.40;99.90
28524;DHT22;15734;50.904;6.922;2023-05-10T00:14:56;13.40;99.90
28524;DHT22;15734;50.904;6.922;2023-05-10T00:17:21;13.40;99.90
28524;DHT22;15734;50.904;6.922;2023-05-10T00:19:47;13.40;99.90
28524;DHT22;15734;50.904;6.922;2023-05-10T00:22:13;13.40;99.90
28524;DHT22;15734;50.904;6.922;2023-05-10T00:24:39;13.40;99.90
28524;DHT22;15734;50.904;6.922;2023-05-10T00:27:04;13.40;99.90
28524;DHT22;15734;50.904;6.922;2023-05-10T00:29:30;13.50;99.90
28524;DHT22;15734;50.904;6.922;2023-05-10T00:31:56;13.50;99.90
28524;DHT22;15734;50.904;6.922;2023-05-10T00:34:22;13.50;99.90
28524;DHT22;15734;50.904;6.922;2023-05-10T00:36:48;13.50;99.90
28524;DHT22;15734;50.904;6.922;2023-05-10T00:39:13;13.50;99.90
28524;DHT22;15734;50.904;6.922;2023-05-10T00:41:39;13.40;99.90
28524;DHT22;15734;50.904;6.922;2023-05-10T00:44:04;13.50;99.90
28524;DHT22;15734;50.904;6.922;2023-05-10T00:46:30;13.50;99.90
28524;DHT22;15734;50.904;6.922;2023-05-10T00:48:57;13.50;99.90
28524;DHT22;15734;50.904;6.922;2023-05-10T00:51:22;13.50;99.90
28524;DHT22;15734;50.904;6.922;2023-05-10T00:53:48;13.50;99.90
28524;DHT22;15734;50.904;6.922;2023-05-10T00:56:15;13.50;99.90
28524;DHT22;15734;50.904;6.922;2023-05-10T00:58:41;13.50;99.90
28524;DHT22;15734;50.904;6.922;2023-05-10T01:01:08;13.50;99.90
28524;DHT22;15734;50.904;6.922;2023-05-10T01:03:34;13.50;99.90
28524;DHT22;15734;50.904;6.922;2023-05-10T01:06:00;13.60;99.90
28524;DHT22;15734;50.904;6.922;2023-05-10T01:08:26;13.50;99.90
28524;DHT22;15734;50.904;6.922;2023-05-10T01:10:53;13.50;99.90
28524;DHT22;15734;50.904;6.922;2023-05-10T01:13:34;13.50;99.90
28524;DHT22;15734;50.904;6.922;2023-05-10T01:16:01;13.60;99.90
28524;DHT22;15734;50.904;6.922;2023-05-10T01:18:31;13.60;99.90
28524;DHT22;15734;50.904;6.922;2023-05-10T01:26:28;13.60;99.90
28524;DHT22;15734;50.904;6.922;2023-05-10T01:34:35;13.60;99.90
28524;DHT22;15734;50.904;6.922;2023-05-10T01:37:17;13.60;99.90
28524;DHT22;15734;50.904;6.922;2023-05-10T01:40:00;13.60;99.90
28524;DHT22;15734;50.904;6.922;2023-05-10T01:42:30;13.60;99.90
28524;DHT22;15734;50.904;6.922;2023-05-10T01:45:07;13.60;99.90
28524;DHT22;15734;50.904;6.922;2023-05-10T01:47:42;13.60;99.90
28524;DHT22;15734;50.904;6.922;2023-05-10T01:50:15;13.60;99.90
28524;DHT22;15734;50.904;6.922;2023-05-10T01:52:47;13.60;99.90
28524;DHT22;15734;50.904;6.922;2023-05-10T01:55:15;13.60;99.90
28524;DHT22;15734;50.904;6.922;2023-05-10T01:57:43;13.60;99.90
28524;DHT22;15734;50.904;6.922;2023-05-10T02:00:11;13.60;99.90
28524;DHT22;15734;50.904;6.922;2023-05-10T02:02:39;13.60;99.90
28524;DHT22;15734;50.904;6.922;2023-05-10T02:05:06;13.60;99.90
28524;DHT22;15734;50.904;6.922;2023-05-10T02:07:35;13.60;99.90
28524;DHT22;15734;50.904;6.922;2023-05-10T02:10:02;13.60;99.90
28524;DHT22;15734;50.904;6.922;2023-05-10T02:12:31;13.60;99.90
28524;DHT22;15734;50.904;6.922;2023-05-10T02:15:00;13.60;99.90
28524;DHT22;15734;50.904;6.922;2023-05-10T02:17:27;13.50;99.90
28524;DHT22;15734;50.904;6.922;2023-05-10T02:19:54;13.50;99.90
28524;DHT22;15734;50.904;6.922;2023-05-10T02:22:21;13.50;99.90
28524;DHT22;15734;50.904;6.922;2023-05-10T02:24:47;13.50;99.90
28524;DHT22;15734;50.904;6.922;2023-05-10T02:27:15;13.50;99.90
28524;DHT22;15734;50.904;6.922;2023-05-10T02:29:42;13.50;99.90
28524;DHT22;15734;50.904;6.922;2023-05-10T02:32:09;13.50;99.90
28524;DHT22;15734;50.904;6.922;2023-05-10T02:34:36;13.50;99.90
28524;DHT22;15734;50.904;6.922;2023-05-10T02:37:02;13.50;99.90
28524;DHT22;15734;50.904;6.922;2023-05-10T02:39:29;13.60;99.90
28524;DHT22;15734;50.904;6.922;2023-05-10T02:41:55;13.60;99.90
28524;DHT22;15734;50.904;6.922;2023-05-10T02:44:22;13.60;99.90
28524;DHT22;15734;50.904;6.922;2023-05-10T02:46:48;13.60;99.90
28524;DHT22;15734;50.904;6.922;2023-05-10T02:49:15;13.50;99.90
28524;DHT22;15734;50.904;6.922;2023-05-10T02:51:44;13.60;99.90
28524;DHT22;15734;50.904;6.922;2023-05-10T02:54:14;13.60;99.90
28524;DHT22;15734;50.904;6.922;2023-05-10T02:56:43;13.60;99.90
28524;DHT22;15734;50.904;6.922;2023-05-10T02:59:12;13.60;99.90
28524;DHT22;15734;50.904;6.922;2023-05-10T03:01:37;13.60;99.90
28524;DHT22;15734;50.904;6.922;2023-05-10T03:04:03;13.70;99.90
28524;DHT22;15734;50.904;6.922;2023-05-10T03:06:29;13.70;99.90
28524;DHT22;15734;50.904;6.922;2023-05-10T03:08:55;13.70;99.90
28524;DHT22;15734;50.904;6.922;2023-05-10T03:14:21;13.60;99.90
28524;DHT22;15734;50.904;6.922;2023-05-10T03:17:09;13.60;99.90
28524;DHT22;15734;50.904;6.922;2023-05-10T03:19:58;13.70;99.90
28524;DHT22;15734;50.904;6.922;2023-05-10T03:22:44;13.70;99.90
28524;DHT22;15734;50.904;6.922;2023-05-10T03:25:11;13.70;99.90
28524;DHT22;15734;50.904;6.922;2023-05-10T03:27:40;13.70;99.90
28524;DHT22;15734;50.904;6.922;2023-05-10T03:30:08;13.60;99.90
28524;DHT22;15734;50.904;6.922;2023-05-10T03:32:34;13.70;99.90
28524;DHT22;15734;50.904;6.922;2023-05-10T03:35:00;13.70;99.90
28524;DHT22;15734;50.904;6.922;2023-05-10T03:37:25;13.70;99.90
28524;DHT22;15734;50.904;6.922;2023-05-10T03:39:51;13.70;99.90
28524;DHT22;15734;50.904;6.922;2023-05-10T03:42:16;13.70;99.90
28524;DHT22;15734;50.904;6.922;2023-05-10T03:44:43;13.70;99.90
28524;DHT22;15734;50.904;6.922;2023-05-10T03:47:08;13.70;99.90
28524;DHT22;15734;50.904;6.922;2023-05-10T03:49:34;13.70;99.90
28524;DHT22;15734;50.904;6.922;2023-05-10T03:51:59;13.70;99.90
28524;DHT22;15734;50.904;6.922;2023-05-10T03:54:25;13.70;99.90
28524;DHT22;15734;50.904;6.922;2023-05-10T03:56:51;13.60;99.90
28524;DHT22;15734;50.904;6.922;2023-05-10T03:59:16;13.60;99.90
28524;DHT22;15734;50.904;6.922;2023-05-10T04:01:42;13.60;99.90
28524;DHT22;15734;50.904;6.922;2023-05-10T04:04:07;13.60;99.90
28524;DHT22;15734;50.904;6.922;2023-05-10T04:06:33;13.60;99.90
28524;DHT22;15734;50.904;6.922;2023-05-10T04:08:58;13.60;99.90
28524;DHT22;15734;50.904;6.922;2023-05-10T04:11:29;13.60;99.90
28524;DHT22;15734;50.904;6.922;2023-05-10T04:13:55;13.50;99.90
28524;DHT22;15734;50.904;6.922;2023-05-10T04:16:20;13.50;99.90
28524;DHT22;15734;50.904;6.922;2023-05-10T04:18:46;13.50;99.90
28524;DHT22;15734;50.904;6.922;2023-05-10T04:21:14;13.60;99.90
28524;DHT22;15734;50.904;6.922;2023-05-10T04:23:40;13.50;99.90
28524;DHT22;15734;50.904;6.922;2023-05-10T04:26:06;13.50;99.90
28524;DHT22;15734;50.904;6.922;2023-05-10T04:28:32;13.50;99.90
28524;DHT22;15734;50.904;6.922;2023-05-10T04:31:08;13.50;99.90
28524;DHT22;15734;50.904;6.922;2023-05-10T04:33:34;13.60;99.90
28524;DHT22;15734;50.904;6.922;2023-05-10T04:36:01;13.50;99.90
28524;DHT22;15734;50.904;6.922;2023-05-10T04:38:27;13.50;99.90
28524;DHT22;15734;50.904;6.922;2023-05-10T04:40:53;13.50;99.90
28524;DHT22;15734;50.904;6.922;2023-05-10T04:43:18;13.40;99.90
28524;DHT22;15734;50.904;6.922;2023-05-10T04:45:44;13.50;99.90
28524;DHT22;15734;50.904;6.922;2023-05-10T04:48:09;13.50;99.90
28524;DHT22;15734;50.904;6.922;2023-05-10T04:50:35;13.50;99.90
28524;DHT22;15734;50.904;6.922;2023-05-10T04:53:01;13.50;99.90
28524;DHT22;15734;50.904;6.922;2023-05-10T04:55:26;13.50;99.90
28524;DHT22;15734;50.904;6.922;2023-05-10T04:57:52;13.50;99.90
28524;DHT22;15734;50.904;6.922;2023-05-10T05:00:18;13.50;99.90
28524;DHT22;15734;50.904;6.922;2023-05-10T05:02:44;13.50;99.90
28524;DHT22;15734;50.904;6.922;2023-05-10T05:05:11;13.50;99.90
28524;DHT22;15734;50.904;6.922;2023-05-10T05:07:36;13.50;99.90
28524;DHT22;15734;50.904;6.922;2023-05-10T05:10:07;13.50;99.90
28524;DHT22;15734;50.904;6.922;2023-05-10T05:12:34;13.40;99.90
28524;DHT22;15734;50.904;6.922;2023-05-10T05:14:59;13.40;99.90
28524;DHT22;15734;50.904;6.922;2023-05-10T05:17:25;13.40;99.90
28524;DHT22;15734;50.904;6.922;2023-05-10T05:19:51;13.50;99.90
28524;DHT22;15734;50.904;6.922;2023-05-10T05:22:16;13.50;99.90
28524;DHT22;15734;50.904;6.922;2023-05-10T05:24:42;13.50;99.90
28524;DHT22;15734;50.904;6.922;2023-05-10T05:27:08;13.50;99.90
28524;DHT22;15734;50.904;6.922;2023-05-10T05:29:33;13.50;99.90
28524;DHT22;15734;50.904;6.922;2023-05-10T05:31:59;13.50;99.90
28524;DHT22;15734;50.904;6.922;2023-05-10T05:34:25;13.50;99.90
28524;DHT22;15734;50.904;6.922;2023-05-10T05:36:51;13.40;99.90
28524;DHT22;15734;50.904;6.922;2023-05-10T05:39:16;13.40;99.90
28524;DHT22;15734;50.904;6.922;2023-05-10T05:41:42;13.40;99.90
28524;DHT22;15734;50.904;6.922;2023-05-10T05:44:07;13.40;99.90
28524;DHT22;15734;50.904;6.922;2023-05-10T05:46:33;13.50;99.90
28524;DHT22;15734;50.904;6.922;2023-05-10T05:48:59;13.50;99.90
28524;DHT22;15734;50.904;6.922;2023-05-10T05:51:24;13.50;99.90
28524;DHT22;15734;50.904;6.922;2023-05-10T05:53:50;13.50;99.90
28524;DHT22;15734;50.904;6.922;2023-05-10T05:56:16;13.50;99.90
28524;DHT22;15734;50.904;6.922;2023-05-10T05:58:42;13.60;99.90
28524;DHT22;15734;50.904;6.922;2023-05-10T06:01:08;13.60;99.90
28524;DHT22;15734;50.904;6.922;2023-05-10T06:03:34;13.60;99.90
28524;DHT22;15734;50.904;6.922;2023-05-10T06:05:59;13.60;99.90
28524;DHT22;15734;50.904;6.922;2023-05-10T06:08:25;13.70;99.90
28524;DHT22;15734;50.904;6.922;2023-05-10T06:10:51;13.50;99.90
28524;DHT22;15734;50.904;6.922;2023-05-10T06:13:16;13.60;99.90
28524;DHT22;15734;50.904;6.922;2023-05-10T06:15:42;13.60;99.90
28524;DHT22;15734;50.904;6.922;2023-05-10T06:18:07;13.60;99.90
28524;DHT22;15734;50.904;6.922;2023-05-10T06:20:33;13.70;99.90
28524;DHT22;15734;50.904;6.922;2023-05-10T06:22:58;13.70;99.90
28524;DHT22;15734;50.904;6.922;2023-05-10T06:25:24;13.70;99.90
28524;DHT22;15734;50.904;6.922;2023-05-10T06:27:50;13.70;99.90
28524;DHT22;15734;50.904;6.922;2023-05-10T06:30:16;13.70;99.90
28524;DHT22;15734;50.904;6.922;2023-05-10T06:32:41;13.60;99.90
28524;DHT22;15734;50.904;6.922;2023-05-10T06:35:09;13.70;99.90
28524;DHT22;15734;50.904;6.922;2023-05-10T06:37:35;13.70;99.90
28524;DHT22;15734;50.904;6.922;2023-05-10T06:40:00;13.70;99.90
28524;DHT22;15734;50.904;6.922;2023-05-10T06:42:27;13.60;99.90
28524;DHT22;15734;50.904;6.922;2023-05-10T06:44:52;13.60;99.90
28524;DHT22;15734;50.904;6.922;2023-05-10T06:47:18;13.50;99.90
28524;DHT22;15734;50.904;6.922;2023-05-10T06:49:44;13.50;99.90
28524;DHT22;15734;50.904;6.922;2023-05-10T06:52:09;13.40;99.90
28524;DHT22;15734;50.904;6.922;2023-05-10T06:54:35;13.40;99.90
28524;DHT22;15734;50.904;6.922;2023-05-10T06:57:00;13.40;99.90
28524;DHT22;15734;50.904;6.922;2023-05-10T06:59:26;13.50;99.90
28524;DHT22;15734;50.904;6.922;2023-05-10T07:01:51;13.50;99.90
28524;DHT22;15734;50.904;6.922;2023-05-10T07:04:17;13.50;99.90
28524;DHT22;15734;50.904;6.922;2023-05-10T07:06:43;13.50;99.90
28524;DHT22;15734;50.904;6.922;2023-05-10T07:09:08;13.60;99.90
28524;DHT22;15734;50.904;6.922;2023-05-10T07:11:34;13.70;99.90
28524;DHT22;15734;50.904;6.922;2023-05-10T07:14:00;13.60;99.90
28524;DHT22;15734;50.904;6.922;2023-05-10T07:16:25;13.70;99.90
28524;DHT22;15734;50.904;6.922;2023-05-10T07:18:51;13.70;99.90
28524;DHT22;15734;50.904;6.922;2023-05-10T07:21:18;13.70;99.90
28524;DHT22;15734;50.904;6.922;2023-05-10T07:23:43;13.70;99.90
28524;DHT22;15734;50.904;6.922;2023-05-10T07:26:09;13.70;99.90
28524;DHT22;15734;50.904;6.922;2023-05-10T07:28:35;13.70;99.90
28524;DHT22;15734;50.904;6.922;2023-05-10T07:31:02;13.70;99.90
28524;DHT22;15734;50.904;6.922;2023-05-10T07:33:28;13.80;99.90
28524;DHT22;15734;50.904;6.922;2023-05-10T07:35:54;13.80;99.90
28524;DHT22;15734;50.904;6.922;2023-05-10T07:38:19;13.90;99.90
28524;DHT22;15734;50.904;6.922;2023-05-10T07:40:45;13.90;99.90
28524;DHT22;15734;50.904;6.922;2023-05-10T07:43:10;13.70;99.90
28524;DHT22;15734;50.904;6.922;2023-05-10T07:45:36;13.80;99.90
28524;DHT22;15734;50.904;6.922;2023-05-10T07:48:01;13.90;99.90
28524;DHT22;15734;50.904;6.922;2023-05-10T07:50:27;14.00;99.90
28524;DHT22;15734;50.904;6.922;2023-05-10T07:52:53;14.00;99.90
28524;DHT22;15734;50.904;6.922;2023-05-10T07:55:19;14.10;99.90
28524;DHT22;15734;50.904;6.922;2023-05-10T07:57:46;14.20;99.90
28524;DHT22;15734;50.904;6.922;2023-05-10T08:00:13;14.20;99.90
28524;DHT22;15734;50.904;6.922;2023-05-10T08:02:41;14.20;99.90
28524;DHT22;15734;50.904;6.922;2023-05-10T08:05:07;14.30;99.90
28524;DHT22;15734;50.904;6.922;2023-05-10T08:07:33;14.30;99.90
28524;DHT22;15734;50.904;6.922;2023-05-10T08:09:59;14.50;99.90
28524;DHT22;15734;50.904;6.922;2023-05-10T08:12:24;14.40;99.90
28524;DHT22;15734;50.904;6.922;2023-05-10T08:14:50;14.50;99.90
28524;DHT22;15734;50.904;6.922;2023-05-10T08:17:15;14.40;99.90
28524;DHT22;15734;50.904;6.922;2023-05-10T08:19:41;14.40;99.90
28524;DHT22;15734;50.904;6.922;2023-05-10T08:22:06;14.50;99.90
28524;DHT22;15734;50.904;6.922;2023-05-10T08:24:32;14.50;99.90
28524;DHT22;15734;50.904;6.922;2023-05-10T08:26:57;14.40;99.90
28524;DHT22;15734;50.904;6.922;2023-05-10T08:29:23;14.40;99.90
28524;DHT22;15734;50.904;6.922;2023-05-10T08:31:48;14.50;99.90
28524;DHT22;15734;50.904;6.922;2023-05-10T08:34:14;14.50;99.90
28524;DHT22;15734;50.904;6.922;2023-05-10T08:36:40;14.50;99.90
28524;DHT22;15734;50.904;6.922;2023-05-10T08:39:05;14.60;99.90
28524;DHT22;15734;50.904;6.922;2023-05-10T08:41:33;14.50;99.90
28524;DHT22;15734;50.904;6.922;2023-05-10T08:44:04;14.40;99.90
28524;DHT22;15734;50.904;6.922;2023-05-10T08:46:31;14.50;99.90
28524;DHT22;15734;50.904;6.922;2023-05-10T08:49:01;14.50;99.90
28524;DHT22;15734;50.904;6.922;2023-05-10T08:51:31;14.40;99.90
28524;DHT22;15734;50.904;6.922;2023-05-10T08:53:59;14.30;99.90
28524;DHT22;15734;50.904;6.922;2023-05-10T08:56:25;14.30;99.90
28524;DHT22;15734;50.904;6.922;2023-05-10T08:58:51;14.30;99.90
28524;DHT22;15734;50.904;6.922;2023-05-10T09:01:18;14.30;99.90
28524;DHT22;15734;50.904;6.922;2023-05-10T09:03:43;14.40;99.90
28524;DHT22;15734;50.904;6.922;2023-05-10T09:06:12;14.40;99.90
28524;DHT22;15734;50.904;6.922;2023-05-10T09:08:38;14.60;99.90
28524;DHT22;15734;50.904;6.922;2023-05-10T09:11:05;14.80;99.90
28524;DHT22;15734;50.904;6.922;2023-05-10T09:13:31;14.80;99.90
28524;DHT22;15734;50.904;6.922;2023-05-10T09:15:57;14.80;99.90
28524;DHT22;15734;50.904;6.922;2023-05-10T09:18:23;14.90;99.90
28524;DHT22;15734;50.904;6.922;2023-05-10T09:20:49;14.90;99.90
28524;DHT22;15734;50.904;6.922;2023-05-10T09:23:15;14.90;99.90
28524;DHT22;15734;50.904;6.922;2023-05-10T09:25:43;15.10;99.90
28524;DHT22;15734;50.904;6.922;2023-05-10T09:28:09;15.30;99.90
28524;DHT22;15734;50.904;6.922;2023-05-10T09:30:36;15.40;99.90
28524;DHT22;15734;50.904;6.922;2023-05-10T09:33:01;15.40;99.90
28524;DHT22;15734;50.904;6.922;2023-05-10T09:35:29;15.20;99.90
28524;DHT22;15734;50.904;6.922;2023-05-10T09:38:02;15.10;99.90
28524;DHT22;15734;50.904;6.922;2023-05-10T09:40:28;15.10;99.90
28524;DHT22;15734;50.904;6.922;2023-05-10T09:43:08;14.90;99.90
28524;DHT22;15734;50.904;6.922;2023-05-10T09:45:35;14.90;99.90
28524;DHT22;15734;50.904;6.922;2023-05-10T09:48:02;14.70;99.90
28524;DHT22;15734;50.904;6.922;2023-05-10T09:50:29;14.60;99.90
28524;DHT22;15734;50.904;6.922;2023-05-10T09:53:02;14.60;99.90
28524;DHT22;15734;50.904;6.922;2023-05-10T09:55:39;14.60;99.90
28524;DHT22;15734;50.904;6.922;2023-05-10T09:58:05;14.50;99.90
28524;DHT22;15734;50.904;6.922;2023-05-10T10:00:36;14.50;99.90
28524;DHT22;15734;50.904;6.922;2023-05-10T10:03:02;14.70;99.90
28524;DHT22;15734;50.904;6.922;2023-05-10T10:05:29;14.90;99.90
28524;DHT22;15734;50.904;6.922;2023-05-10T10:07:58;15.00;99.90
28524;DHT22;15734;50.904;6.922;2023-05-10T10:10:25;15.20;99.90
28524;DHT22;15734;50.904;6.922;2023-05-10T10:12:52;15.50;99.90
28524;DHT22;15734;50.904;6.922;2023-05-10T10:15:18;15.80;99.90
28524;DHT22;15734;50.904;6.922;2023-05-10T10:17:44;15.80;99.90
28524;DHT22;15734;50.904;6.922;2023-05-10T10:20:10;15.90;99.90
28524;DHT22;15734;50.904;6.922;2023-05-10T10:22:37;16.40;99.90
28524;DHT22;15734;50.904;6.922;2023-05-10T10:25:04;16.80;99.90
28524;DHT22;15734;50.904;6.922;2023-05-10T10:32:47;16.20;99.90
28524;DHT22;15734;50.904;6.922;2023-05-10T10:35:18;15.90;99.90
28524;DHT22;15734;50.904;6.922;2023-05-10T10:37:45;15.70;99.90
28524;DHT22;15734;50.904;6.922;2023-05-10T10:40:31;15.70;99.90
28524;DHT22;15734;50.904;6.922;2023-05-10T10:42:58;15.60;99.90
28524;DHT22;15734;50.904;6.922;2023-05-10T10:45:24;15.80;99.90
28524;DHT22;15734;50.904;6.922;2023-05-10T10:48:19;15.90;99.90
28524;DHT22;15734;50.904;6.922;2023-05-10T10:50:46;16.00;99.90
28524;DHT22;15734;50.904;6.922;2023-05-10T10:53:12;16.10;99.90
28524;DHT22;15734;50.904;6.922;2023-05-10T10:55:46;16.00;99.90
28524;DHT22;15734;50.904;6.922;2023-05-10T10:58:29;16.40;99.90
28524;DHT22;15734;50.904;6.922;2023-05-10T11:01:16;16.40;99.90
28524;DHT22;15734;50.904;6.922;2023-05-10T11:06:34;16.00;99.90
28524;DHT22;15734;50.904;6.922;2023-05-10T11:09:11;15.90;99.90
28524;DHT22;15734;50.904;6.922;2023-05-10T11:11:50;16.10;99.90
28524;DHT22;15734;50.904;6.922;2023-05-10T11:14:20;16.10;99.90
28524;DHT22;15734;50.904;6.922;2023-05-10T11:16:45;16.20;99.90
28524;DHT22;15734;50.904;6.922;2023-05-10T11:19:12;16.30;99.90
28524;DHT22;15734;50.904;6.922;2023-05-10T11:24:36;16.40;99.90
28524;DHT22;15734;50.904;6.922;2023-05-10T11:27:02;16.40;99.90
28524;DHT22;15734;50.904;6.922;2023-05-10T11:29:28;16.50;99.90
28524;DHT22;15734;50.904;6.922;2023-05-10T11:31:59;16.50;99.90
28524;DHT22;15734;50.904;6.922;2023-05-10T11:34:27;16.40;99.90
28524;DHT22;15734;50.904;6.922;2023-05-10T11:36:55;16.30;99.90
28524;DHT22;15734;50.904;6.922;2023-05-10T11:39:21;16.30;99.90
28524;DHT22;15734;50.904;6.922;2023-05-10T11:41:50;16.30;99.90
28524;DHT22;15734;50.904;6.922;2023-05-10T11:44:16;16.30;99.90
28524;DHT22;15734;50.904;6.922;2023-05-10T11:46:41;16.20;99.90
28524;DHT22;15734;50.904;6.922;2023-05-10T11:49:07;16.20;99.90
28524;DHT22;15734;50.904;6.922;2023-05-10T11:51:36;16.20;99.90
28524;DHT22;15734;50.904;6.922;2023-05-10T11:54:05;16.40;99.90
28524;DHT22;15734;50.904;6.922;2023-05-10T11:56:32;16.50;99.90
28524;DHT22;15734;50.904;6.922;2023-05-10T11:58:58;16.50;99.90
28524;DHT22;15734;50.904;6.922;2023-05-10T12:01:26;16.40;99.90
28524;DHT22;15734;50.904;6.922;2023-05-10T12:03:53;16.30;99.90
28524;DHT22;15734;50.904;6.922;2023-05-10T12:06:20;16.40;99.90
28524;DHT22;15734;50.904;6.922;2023-05-10T12:08:47;16.50;99.90
28524;DHT22;15734;50.904;6.922;2023-05-10T12:11:13;16.60;99.90
28524;DHT22;15734;50.904;6.922;2023-05-10T12:13:43;16.70;99.90
28524;DHT22;15734;50.904;6.922;2023-05-10T12:16:18;16.80;99.90
28524;DHT22;15734;50.904;6.922;2023-05-10T12:18:45;16.80;99.90
28524;DHT22;15734;50.904;6.922;2023-05-10T12:21:13;17.10;99.90
28524;DHT22;15734;50.904;6.922;2023-05-10T12:23:41;17.30;99.90
28524;DHT22;15734;50.904;6.922;2023-05-10T12:26:09;17.40;99.90
28524;DHT22;15734;50.904;6.922;2023-05-10T12:28:34;17.60;99.90
28524;DHT22;15734;50.904;6.922;2023-05-10T12:31:02;17.80;99.90
28524;DHT22;15734;50.904;6.922;2023-05-10T12:33:35;17.40;99.90
28524;DHT22;15734;50.904;6.922;2023-05-10T12:36:02;17.80;99.90
28524;DHT22;15734;50.904;6.922;2023-05-10T12:38:35;18.30;99.90
28524;DHT22;15734;50.904;6.922;2023-05-10T12:41:07;18.60;99.90
28524;DHT22;15734;50.904;6.922;2023-05-10T12:43:34;18.30;99.90
28524;DHT22;15734;50.904;6.922;2023-05-10T12:48:36;18.10;99.90
28524;DHT22;15734;50.904;6.922;2023-05-10T12:51:02;18.00;99.90
28524;DHT22;15734;50.904;6.922;2023-05-10T12:53:28;17.90;99.90
28524;DHT22;15734;50.904;6.922;2023-05-10T12:55:54;17.90;99.90
28524;DHT22;15734;50.904;6.922;2023-05-10T12:58:20;17.80;99.90
28524;DHT22;15734;50.904;6.922;2023-05-10T13:00:45;17.90;99.90
28524;DHT22;15734;50.904;6.922;2023-05-10T13:03:11;18.10;99.90
28524;DHT22;15734;50.904;6.922;2023-05-10T13:05:37;18.20;99.90
28524;DHT22;15734;50.904;6.922;2023-05-10T13:08:03;18.30;99.90
28524;DHT22;15734;50.904;6.922;2023-05-10T13:10:31;18.40;99.90
28524;DHT22;15734;50.904;6.922;2023-05-10T13:12:58;18.60;99.90
28524;DHT22;15734;50.904;6.922;2023-05-10T13:15:24;18.70;99.90
28524;DHT22;15734;50.904;6.922;2023-05-10T13:17:50;18.40;99.90
28524;DHT22;15734;50.904;6.922;2023-05-10T13:20:15;18.30;99.90
28524;DHT22;15734;50.904;6.922;2023-05-10T13:22:43;18.30;99.90
28524;DHT22;15734;50.904;6.922;2023-05-10T13:25:09;18.20;99.90
28524;DHT22;15734;50.904;6.922;2023-05-10T13:27:35;18.10;99.90
28524;DHT22;15734;50.904;6.922;2023-05-10T13:30:01;18.20;99.90
28524;DHT22;15734;50.904;6.922;2023-05-10T13:32:28;18.50;99.90
28524;DHT22;15734;50.904;6.922;2023-05-10T13:34:55;18.50;99.90
28524;DHT22;15734;50.904;6.922;2023-05-10T13:37:20;18.70;99.90
28524;DHT22;15734;50.904;6.922;2023-05-10T13:39:46;18.90;99.90
28524;DHT22;15734;50.904;6.922;2023-05-10T13:42:12;19.10;99.90
28524;DHT22;15734;50.904;6.922;2023-05-10T13:44:37;18.80;99.90
28524;DHT22;15734;50.904;6.922;2023-05-10T13:47:04;18.50;99.90
28524;DHT22;15734;50.904;6.922;2023-05-10T13:49:29;18.50;99.90
28524;DHT22;15734;50.904;6.922;2023-05-10T13:51:55;18.60;99.90
28524;DHT22;15734;50.904;6.922;2023-05-10T13:54:20;18.60;99.90
28524;DHT22;15734;50.904;6.922;2023-05-10T13:56:47;19.00;99.90
28524;DHT22;15734;50.904;6.922;2023-05-10T13:59:13;19.50;99.90
28524;DHT22;15734;50.904;6.922;2023-05-10T14:01:42;20.00;99.90
28524;DHT22;15734;50.904;6.922;2023-05-10T14:04:09;19.80;99.90
28524;DHT22;15734;50.904;6.922;2023-05-10T14:06:36;19.10;99.90
28524;DHT22;15734;50.904;6.922;2023-05-10T14:09:02;19.00;99.90
28524;DHT22;15734;50.904;6.922;2023-05-10T14:11:28;19.50;99.90
28524;DHT22;15734;50.904;6.922;2023-05-10T14:13:54;19.90;99.90
28524;DHT22;15734;50.904;6.922;2023-05-10T14:16:19;19.80;99.90
28524;DHT22;15734;50.904;6.922;2023-05-10T14:18:45;20.10;99.90
28524;DHT22;15734;50.904;6.922;2023-05-10T14:21:11;20.40;99.90
28524;DHT22;15734;50.904;6.922;2023-05-10T14:23:37;20.40;99.90
28524;DHT22;15734;50.904;6.922;2023-05-10T14:26:03;20.20;99.90
28524;DHT22;15734;50.904;6.922;2023-05-10T14:28:28;19.90;99.90
28524;DHT22;15734;50.904;6.922;2023-05-10T14:30:54;19.90;99.90
28524;DHT22;15734;50.904;6.922;2023-05-10T14:33:19;19.70;99.90
28524;DHT22;15734;50.904;6.922;2023-05-10T14:35:46;19.50;99.90
28524;DHT22;15734;50.904;6.922;2023-05-10T14:38:12;19.50;99.90
28524;DHT22;15734;50.904;6.922;2023-05-10T14:40:37;19.50;99.90
28524;DHT22;15734;50.904;6.922;2023-05-10T14:43:03;19.30;99.90
28524;DHT22;15734;50.904;6.922;2023-05-10T14:45:29;19.10;99.90
28524;DHT22;15734;50.904;6.922;2023-05-10T14:47:54;19.10;99.90
28524;DHT22;15734;50.904;6.922;2023-05-10T14:50:20;19.10;99.90
28524;DHT22;15734;50.904;6.922;2023-05-10T14:52:46;19.10;99.90
28524;DHT22;15734;50.904;6.922;2023-05-10T14:55:11;19.10;99.90
28524;DHT22;15734;50.904;6.922;2023-05-10T14:57:37;19.40;99.90
28524;DHT22;15734;50.904;6.922;2023-05-10T15:00:04;19.70;99.90
28524;DHT22;15734;50.904;6.922;2023-05-10T15:02:30;20.10;99.90
28524;DHT22;15734;50.904;6.922;2023-05-10T15:04:56;20.30;99.90
28524;DHT22;15734;50.904;6.922;2023-05-10T15:07:23;20.10;99.90
28524;DHT22;15734;50.904;6.922;2023-05-10T15:09:49;19.80;99.90
28524;DHT22;15734;50.904;6.922;2023-05-10T15:12:15;19.40;99.90
28524;DHT22;15734;50.904;6.922;2023-05-10T15:14:40;19.30;99.90
28524;DHT22;15734;50.904;6.922;2023-05-10T15:17:06;19.10;99.90
28524;DHT22;15734;50.904;6.922;2023-05-10T15:19:32;18.90;99.90
28524;DHT22;15734;50.904;6.922;2023-05-10T15:21:58;18.90;99.90
28524;DHT22;15734;50.904;6.922;2023-05-10T15:24:24;18.80;99.90
28524;DHT22;15734;50.904;6.922;2023-05-10T15:26:50;18.90;99.90
28524;DHT22;15734;50.904;6.922;2023-05-10T15:29:16;19.30;99.90
28524;DHT22;15734;50.904;6.922;2023-05-10T15:31:49;19.70;99.90
28524;DHT22;15734;50.904;6.922;2023-05-10T15:34:15;19.80;99.90
28524;DHT22;15734;50.904;6.922;2023-05-10T15:36:41;20.00;99.90
28524;DHT22;15734;50.904;6.922;2023-05-10T15:39:07;20.10;99.90
28524;DHT22;15734;50.904;6.922;2023-05-10T15:41:34;20.30;99.90
28524;DHT22;15734;50.904;6.922;2023-05-10T15:44:00;20.00;99.90
28524;DHT22;15734;50.904;6.922;2023-05-10T15:46:26;20.00;99.90
28524;DHT22;15734;50.904;6.922;2023-05-10T15:48:52;19.90;99.90
28524;DHT22;15734;50.904;6.922;2023-05-10T15:51:18;20.10;99.90
28524;DHT22;15734;50.904;6.922;2023-05-10T15:53:44;20.40;99.90
28524;DHT22;15734;50.904;6.922;2023-05-10T15:56:10;20.00;99.90